Time;durP1;ratioP1;P1;durP2;ratioP2;P2;SDS_P1;SDS_P2;PMS_P1;PMS_P2;Temp;Humidity;BMP_temperature;BMP_pressure;BME280_temperature;BME280_humidity;BME280_pressure;Samples;Min_cycle;Max_cycle;Signal;HPM_P1;HPM_P2
2022/08/28 00:01:55;;;;;;;19.58;14.30;;;23.30;99.90;;;;;;5109797;27;20442;-49
2022/08/28 00:04:21;;;;;;;19.60;13.55;;;23.30;99.90;;;;;;5068299;27;20040;-50
2022/08/28 00:06:47;;;;;;;15.02;12.55;;;23.30;99.90;;;;;;5109423;28;20023;-50
2022/08/28 00:09:13;;;;;;;19.67;13.43;;;23.40;99.90;;;;;;5107010;27;20235;-51
2022/08/28 00:11:39;;;;;;;22.40;12.90;;;23.40;99.90;;;;;;5111157;27;20405;-49
2022/08/28 00:14:07;;;;;;;26.00;14.68;;;23.70;99.90;;;;;;5025620;28;20036;-50
2022/08/28 00:16:33;;;;;;;20.77;13.05;;;23.70;99.90;;;;;;5108480;27;20161;-49
2022/08/28 00:19:00;;;;;;;22.23;14.55;;;23.80;99.90;;;;;;5073069;28;20119;-49
2022/08/28 00:21:28;;;;;;;20.65;13.27;;;23.80;99.90;;;;;;5108507;27;20032;-51
2022/08/28 00:23:54;;;;;;;24.60;12.95;;;23.60;99.90;;;;;;5110212;27;20475;-50
2022/08/28 00:29:06;;;;;;;18.25;12.38;;;23.70;99.90;;;;;;5108715;28;20069;-50
2022/08/28 00:31:33;;;;;;;33.47;13.75;;;23.60;99.90;;;;;;5111069;28;20043;-50
2022/08/28 00:34:01;;;;;;;25.27;12.20;;;23.60;99.90;;;;;;5110897;28;20031;-50
2022/08/28 00:36:29;;;;;;;22.13;12.63;;;23.60;99.90;;;;;;5109887;28;20483;-49
2022/08/28 00:38:55;;;;;;;17.55;12.20;;;23.40;99.90;;;;;;5110644;28;20039;-50
2022/08/28 00:41:22;;;;;;;19.52;12.38;;;23.40;99.90;;;;;;5109025;28;20095;-50
2022/08/28 00:43:48;;;;;;;19.02;12.98;;;23.60;99.90;;;;;;5100399;28;20039;-49
2022/08/28 00:46:20;;;;;;;15.27;11.70;;;23.60;99.90;;;;;;5108690;28;20024;-50
2022/08/28 00:48:47;;;;;;;21.40;12.45;;;23.70;99.90;;;;;;5104131;28;20115;-49
2022/08/28 00:54:02;;;;;;;18.20;12.35;;;23.80;99.90;;;;;;5107337;28;20128;-50
2022/08/28 00:56:30;;;;;;;21.80;12.30;;;24.00;99.90;;;;;;5110169;28;20031;-51
2022/08/28 00:59:01;;;;;;;18.02;12.20;;;23.90;99.90;;;;;;5110979;28;20382;-49
2022/08/28 01:01:27;;;;;;;17.52;11.70;;;23.80;99.90;;;;;;5109768;28;20024;-51
2022/08/28 01:03:53;;;;;;;17.33;12.32;;;23.80;99.90;;;;;;5109649;28;20032;-50
2022/08/28 01:06:20;;;;;;;17.92;13.02;;;23.60;99.90;;;;;;5097832;27;20066;-49
2022/08/28 01:08:47;;;;;;;22.00;13.40;;;23.70;99.90;;;;;;5072916;28;20044;-50
2022/08/28 01:11:13;;;;;;;22.92;12.27;;;23.70;99.90;;;;;;5109964;28;20467;-49
2022/08/28 01:13:45;;;;;;;23.10;14.20;;;23.60;99.90;;;;;;5114665;27;20023;-49
2022/08/28 01:16:13;;;;;;;18.00;13.40;;;23.60;99.90;;;;;;5115276;27;20062;-49
2022/08/28 01:18:40;;;;;;;19.35;14.30;;;23.60;99.90;;;;;;5115832;27;20062;-49
2022/08/28 01:21:31;;;;;;;22.15;14.38;;;23.60;99.90;;;;;;5110893;27;20019;-49
2022/08/28 01:24:13;;;;;;;26.13;14.63;;;23.60;99.90;;;;;;5109440;27;20063;-49
2022/08/28 01:26:40;;;;;;;20.77;14.80;;;23.60;99.90;;;;;;5093367;27;20083;-49
2022/08/28 01:29:07;;;;;;;23.90;14.95;;;23.50;99.90;;;;;;5113945;27;20035;-49
2022/08/28 01:31:34;;;;;;;17.48;14.40;;;23.50;99.90;;;;;;5115229;27;20053;-48
2022/08/28 01:34:00;;;;;;;19.23;14.90;;;23.40;99.90;;;;;;5113930;27;20024;-49
2022/08/28 01:36:27;;;;;;;17.95;14.52;;;23.40;99.90;;;;;;5113766;27;20106;-49
2022/08/28 01:39:02;;;;;;;23.55;14.38;;;23.40;99.90;;;;;;5111369;27;20035;-48
2022/08/28 01:41:28;;;;;;;22.48;13.98;;;23.30;99.90;;;;;;5109672;27;20487;-49
2022/08/28 01:43:54;;;;;;;19.73;12.88;;;23.30;99.90;;;;;;5114025;27;20134;-50
2022/08/28 01:46:20;;;;;;;18.52;13.68;;;23.30;99.90;;;;;;5113411;27;20122;-49
2022/08/28 01:48:46;;;;;;;17.25;13.48;;;23.20;99.90;;;;;;5057232;28;20118;-49
2022/08/28 01:51:13;;;;;;;18.92;13.82;;;23.20;99.90;;;;;;5077300;28;20042;-50
2022/08/28 01:53:40;;;;;;;17.23;14.27;;;23.30;99.90;;;;;;5112536;27;20036;-49
2022/08/28 01:56:11;;;;;;;17.65;13.85;;;23.20;99.90;;;;;;5078906;28;20383;-49
2022/08/28 01:58:37;;;;;;;22.42;14.57;;;23.20;99.90;;;;;;5111304;27;20371;-52
2022/08/28 02:01:07;;;;;;;23.38;14.18;;;23.20;99.90;;;;;;5113903;27;20658;-51
2022/08/28 02:03:33;;;;;;;21.00;13.48;;;23.20;99.90;;;;;;5071617;27;20048;-51
2022/08/28 02:05:59;;;;;;;18.73;13.50;;;23.30;99.90;;;;;;5050624;28;20125;-49
2022/08/28 02:08:24;;;;;;;20.58;13.52;;;23.30;99.90;;;;;;5113229;27;20475;-51
2022/08/28 02:10:51;;;;;;;16.05;11.95;;;23.20;99.90;;;;;;5113827;27;20031;-53
2022/08/28 02:13:17;;;;;;;17.30;12.00;;;23.20;99.90;;;;;;5058881;28;20103;-52
2022/08/28 02:15:44;;;;;;;18.65;12.77;;;23.10;99.90;;;;;;5112043;28;20106;-49
2022/08/28 02:18:10;;;;;;;15.82;12.30;;;22.90;99.90;;;;;;5111110;27;20046;-49
2022/08/28 02:20:37;;;;;;;17.25;12.75;;;;;;;;;;5043698;28;20039;-50
2022/08/28 02:23:04;;;;;;;22.15;12.98;;;22.80;99.90;;;;;;5112062;28;20035;-51
2022/08/28 02:25:31;;;;;;;16.75;13.52;;;22.80;99.90;;;;;;5049694;28;20080;-50
2022/08/28 02:27:58;;;;;;;22.90;13.38;;;22.80;99.90;;;;;;5042190;28;20508;-52
2022/08/28 02:30:23;;;;;;;15.07;11.88;;;22.70;99.90;;;;;;5047791;28;20049;-50
2022/08/28 02:32:50;;;;;;;19.15;13.40;;;22.70;99.90;;;;;;5027815;28;20108;-50
2022/08/28 02:35:17;;;;;;;19.15;11.40;;;;;;;;;;5049313;28;20037;-50
2022/08/28 02:37:44;;;;;;;19.38;11.73;;;22.60;99.90;;;;;;5045198;28;20132;-50
2022/08/28 02:40:13;;;;;;;14.93;11.77;;;22.70;99.90;;;;;;5047404;28;20064;-50
2022/08/28 02:42:40;;;;;;;16.98;12.05;;;22.60;99.90;;;;;;5047113;28;20036;-49
2022/08/28 02:45:10;;;;;;;19.98;11.98;;;22.70;99.90;;;;;;5048073;28;20045;-51
2022/08/28 02:47:37;;;;;;;16.95;11.70;;;22.60;99.90;;;;;;5027326;28;20067;-50
2022/08/28 02:50:04;;;;;;;15.18;11.85;;;22.60;99.90;;;;;;5045915;28;20115;-49
2022/08/28 02:52:29;;;;;;;19.40;11.75;;;22.60;99.90;;;;;;5031165;28;20041;-51
2022/08/28 02:54:55;;;;;;;21.88;12.35;;;22.60;99.90;;;;;;5060809;28;20049;-50
2022/08/28 02:57:21;;;;;;;20.23;12.35;;;22.60;99.90;;;;;;5104500;28;20027;-50
2022/08/28 02:59:47;;;;;;;17.88;13.15;;;22.60;99.90;;;;;;5112033;28;20024;-50
2022/08/28 03:02:13;;;;;;;21.02;12.73;;;22.60;99.90;;;;;;5108563;28;20024;-50
2022/08/28 03:04:38;;;;;;;16.10;12.57;;;22.60;99.90;;;;;;5108920;28;20036;-50
2022/08/28 03:07:08;;;;;;;16.23;13.10;;;22.60;99.90;;;;;;5109783;28;20086;-50
2022/08/28 03:09:35;;;;;;;17.17;13.45;;;22.60;99.90;;;;;;5106898;28;20482;-50
2022/08/28 03:12:01;;;;;;;19.63;13.60;;;22.40;99.90;;;;;;5073458;28;20388;-51
2022/08/28 03:14:26;;;;;;;23.02;13.63;;;22.50;99.90;;;;;;5023581;28;20181;-51
2022/08/28 03:16:52;;;;;;;19.23;13.48;;;22.40;99.90;;;;;;5075002;28;20486;-50
2022/08/28 03:19:18;;;;;;;22.02;14.35;;;22.40;99.90;;;;;;5111046;28;20023;-51
2022/08/28 03:21:44;;;;;;;18.77;13.98;;;22.50;99.90;;;;;;5110184;28;20452;-50
2022/08/28 03:24:10;;;;;;;18.95;14.35;;;22.50;99.90;;;;;;5106937;28;20085;-51
2022/08/28 03:26:35;;;;;;;20.83;13.55;;;22.30;99.90;;;;;;5085329;28;20077;-51
2022/08/28 03:29:01;;;;;;;20.45;13.93;;;22.30;99.90;;;;;;5108355;28;20030;-49
2022/08/28 03:31:28;;;;;;;19.88;14.75;;;22.30;99.90;;;;;;5075108;28;20061;-50
2022/08/28 03:33:55;;;;;;;22.70;14.32;;;22.30;99.90;;;;;;5111444;28;20039;-50
2022/08/28 03:36:24;;;;;;;19.38;13.88;;;22.30;99.90;;;;;;5109595;28;20483;-51
2022/08/28 03:38:51;;;;;;;19.60;14.45;;;22.30;99.90;;;;;;5108675;28;20023;-49
2022/08/28 03:41:19;;;;;;;20.02;14.27;;;22.30;99.90;;;;;;5109722;28;20024;-49
2022/08/28 03:43:45;;;;;;;18.05;13.32;;;22.40;99.90;;;;;;5109159;28;20061;-50
2022/08/28 03:46:17;;;;;;;20.48;15.10;;;22.40;99.90;;;;;;5106287;28;20027;-53
2022/08/28 03:48:46;;;;;;;20.42;14.02;;;22.30;99.90;;;;;;5109401;28;20032;-50
2022/08/28 03:51:18;;;;;;;20.60;13.57;;;22.30;99.90;;;;;;5105896;28;20612;-51
2022/08/28 03:53:43;;;;;;;;;;;22.30;99.90;;;;;;5111010;28;20086;-50
2022/08/28 03:56:12;;;;;;;18.95;13.80;;;22.20;99.90;;;;;;5110343;28;19947;-51
2022/08/28 03:58:39;;;;;;;18.10;13.65;;;22.20;99.90;;;;;;5110914;27;20067;-52
2022/08/28 04:01:06;;;;;;;16.83;12.82;;;22.10;99.90;;;;;;5105498;28;20113;-52
2022/08/28 04:03:32;;;;;;;22.92;14.32;;;22.00;99.90;;;;;;5109192;27;20036;-51
2022/08/28 04:05:57;;;;;;;21.80;14.57;;;22.00;99.90;;;;;;5111956;27;20106;-49
2022/08/28 04:08:24;;;;;;;20.98;14.65;;;22.00;99.90;;;;;;5107427;27;20063;-52
2022/08/28 04:10:50;;;;;;;32.95;15.07;;;22.10;99.90;;;;;;5046210;28;20073;-50
2022/08/28 04:13:18;;;;;;;21.23;14.48;;;22.20;99.90;;;;;;5111186;28;20459;-50
2022/08/28 04:15:44;;;;;;;26.27;15.77;;;22.20;99.90;;;;;;5109091;27;20043;-51
2022/08/28 04:18:10;;;;;;;17.42;13.10;;;22.10;99.90;;;;;;5109299;28;20027;-51
2022/08/28 04:20:36;;;;;;;21.20;14.38;;;22.10;99.90;;;;;;5108487;27;20035;-50
2022/08/28 04:23:02;;;;;;;22.92;14.55;;;22.20;99.90;;;;;;5107999;28;20128;-50
2022/08/28 04:25:29;;;;;;;21.83;14.23;;;22.10;99.90;;;;;;5044191;28;20095;-52
2022/08/28 04:27:55;;;;;;;23.58;14.55;;;22.20;99.90;;;;;;5041805;28;20489;-50
2022/08/28 04:30:20;;;;;;;18.60;14.20;;;22.30;99.90;;;;;;5043564;28;20036;-50
2022/08/28 04:32:46;;;;;;;21.85;14.45;;;22.40;99.90;;;;;;5046398;28;20406;-50
2022/08/28 04:35:13;;;;;;;21.33;16.20;;;22.50;99.90;;;;;;5039121;28;20045;-49
2022/08/28 04:37:39;;;;;;;20.88;13.55;;;22.50;99.90;;;;;;5040038;28;20423;-50
2022/08/28 04:40:08;;;;;;;19.75;14.60;;;22.50;99.90;;;;;;5015752;28;20068;-49
2022/08/28 04:42:35;;;;;;;20.38;14.32;;;22.50;99.90;;;;;;5030333;28;20045;-50
2022/08/28 04:45:01;;;;;;;21.67;14.57;;;22.50;99.90;;;;;;5043471;28;20529;-50
2022/08/28 04:47:27;;;;;;;21.52;14.43;;;22.60;99.90;;;;;;5034878;28;20025;-51
2022/08/28 04:49:54;;;;;;;21.60;14.75;;;22.60;99.90;;;;;;5039072;28;20038;-50
2022/08/28 04:52:21;;;;;;;21.98;13.63;;;22.60;99.90;;;;;;5046198;28;20154;-49
2022/08/28 04:54:48;;;;;;;28.52;15.40;;;22.70;99.90;;;;;;5037600;28;20400;-49
2022/08/28 04:57:14;;;;;;;21.40;14.80;;;22.70;99.90;;;;;;5097976;28;20680;-49
2022/08/28 04:59:43;;;;;;;22.45;13.52;;;22.80;99.90;;;;;;5111952;28;20035;-50
2022/08/28 05:02:08;;;;;;;21.55;14.68;;;22.80;99.90;;;;;;5062141;28;20051;-49
2022/08/28 05:04:34;;;;;;;19.27;12.43;;;22.80;99.90;;;;;;5109430;28;20028;-50
2022/08/28 05:07:00;;;;;;;15.98;13.05;;;22.90;99.90;;;;;;5035795;28;20043;-49
2022/08/28 05:09:26;;;;;;;19.20;13.40;;;23.00;99.90;;;;;;5071354;28;20042;-49
2022/08/28 05:11:52;;;;;;;16.73;11.80;;;23.00;99.90;;;;;;5068706;28;20561;-49
2022/08/28 05:14:20;;;;;;;20.85;12.35;;;23.00;99.90;;;;;;5111184;28;20035;-50
2022/08/28 05:16:51;;;;;;;17.10;11.85;;;23.00;99.90;;;;;;5111521;28;20168;-50
2022/08/28 05:19:18;;;;;;;17.98;11.43;;;23.00;99.90;;;;;;5111529;28;20429;-49
2022/08/28 05:21:45;;;;;;;14.00;11.10;;;23.10;99.90;;;;;;5075337;28;20438;-50
2022/08/28 05:24:12;;;;;;;18.83;11.20;;;23.20;99.90;;;;;;5112042;28;20040;-49
2022/08/28 05:26:39;;;;;;;17.90;10.25;;;23.20;99.90;;;;;;5068207;28;20123;-49
2022/08/28 05:29:06;;;;;;;16.35;11.63;;;23.30;99.90;;;;;;5068333;28;20051;-50
2022/08/28 05:31:32;;;;;;;16.27;10.40;;;23.40;99.90;;;;;;5059552;28;20040;-49
2022/08/28 05:33:59;;;;;;;14.95;10.13;;;23.40;99.90;;;;;;5018380;28;20060;-49
2022/08/28 05:36:26;;;;;;;14.30;9.30;;;23.60;99.90;;;;;;5068047;28;20115;-49
2022/08/28 05:38:56;;;;;;;15.95;9.45;;;23.60;99.90;;;;;;5058857;28;20115;-49
2022/08/28 05:41:24;;;;;;;14.55;9.55;;;23.50;99.90;;;;;;5064288;28;20037;-50
2022/08/28 05:43:51;;;;;;;17.33;9.10;;;23.60;99.90;;;;;;5067988;28;20044;-50
2022/08/28 05:46:19;;;;;;;14.88;9.13;;;23.60;99.90;;;;;;5068224;28;20073;-49
2022/08/28 05:48:47;;;;;;;13.43;10.18;;;23.70;99.90;;;;;;5068306;28;20028;-50
2022/08/28 05:51:15;;;;;;;14.95;9.23;;;23.70;99.90;;;;;;5069690;28;20060;-49
2022/08/28 05:53:43;;;;;;;14.90;9.18;;;23.70;99.90;;;;;;5079063;28;20157;-49
2022/08/28 05:56:11;;;;;;;14.88;9.35;;;23.70;99.90;;;;;;5058214;28;20123;-51
2022/08/28 05:58:39;;;;;;;16.17;8.60;;;23.80;99.90;;;;;;5112965;28;20032;-49
2022/08/28 06:01:22;;;;;;;12.63;8.70;;;23.80;99.90;;;;;;5104386;28;20028;-49
2022/08/28 06:03:56;;;;;;;12.52;8.45;;;23.90;99.90;;;;;;5099175;28;20027;-49
2022/08/28 06:06:23;;;;;;;16.98;8.38;;;24.00;99.90;;;;;;5067032;28;20076;-50
2022/08/28 06:08:50;;;;;;;14.43;8.43;;;24.00;99.90;;;;;;5069035;28;20028;-49
2022/08/28 06:11:19;;;;;;;14.30;9.05;;;24.00;99.90;;;;;;5036683;28;20067;-50
2022/08/28 06:13:45;;;;;;;14.45;8.73;;;24.10;99.90;;;;;;5070842;28;20424;-50
2022/08/28 06:16:12;;;;;;;11.80;9.07;;;24.10;99.90;;;;;;5014204;28;20042;-49
2022/08/28 06:18:39;;;;;;;11.40;7.63;;;24.20;99.90;;;;;;5021966;28;20045;-49
2022/08/28 06:21:05;;;;;;;17.13;9.90;;;24.20;99.90;;;;;;5071230;28;20044;-50
2022/08/28 06:23:30;;;;;;;12.13;8.20;;;24.20;99.90;;;;;;5020850;28;20052;-50
2022/08/28 06:25:57;;;;;;;15.93;9.40;;;24.30;99.90;;;;;;5071897;28;20037;-50
2022/08/28 06:28:25;;;;;;;15.95;8.48;;;24.40;99.90;;;;;;5054213;28;20472;-50
2022/08/28 06:30:52;;;;;;;12.68;8.52;;;24.50;99.90;;;;;;5037553;28;20059;-50
2022/08/28 06:33:20;;;;;;;18.10;9.43;;;24.50;99.90;;;;;;5070791;28;20499;-49
2022/08/28 06:35:55;;;;;;;15.25;8.82;;;24.60;99.90;;;;;;5071026;28;20032;-49
2022/08/28 06:38:24;;;;;;;12.85;7.88;;;24.70;99.90;;;;;;5109022;28;20047;-49
2022/08/28 06:40:53;;;;;;;14.27;7.65;;;24.70;99.90;;;;;;5114144;28;20035;-50
2022/08/28 06:43:21;;;;;;;16.38;8.52;;;24.80;99.90;;;;;;5113898;28;20059;-49
2022/08/28 06:45:49;;;;;;;11.50;8.10;;;24.90;99.90;;;;;;5114075;28;20027;-49
2022/08/28 06:48:16;;;;;;;11.93;8.13;;;25.00;99.90;;;;;;5095147;28;20038;-50
2022/08/28 06:50:45;;;;;;;12.90;7.97;;;25.10;99.90;;;;;;5113915;28;20493;-50
2022/08/28 06:53:14;;;;;;;10.85;7.25;;;25.10;99.90;;;;;;5060852;28;20089;-49
2022/08/28 06:55:41;;;;;;;15.13;8.68;;;25.00;99.90;;;;;;5113565;28;20031;-49
2022/08/28 06:58:07;;;;;;;19.58;8.00;;;25.10;99.90;;;;;;5078142;28;20122;-51
2022/08/28 07:00:35;;;;;;;12.95;7.95;;;25.20;99.90;;;;;;5113300;28;20372;-50
2022/08/28 07:03:04;;;;;;;11.32;7.90;;;25.30;99.90;;;;;;5113227;28;20139;-49
2022/08/28 07:05:29;;;;;;;11.18;7.25;;;25.40;99.90;;;;;;5113537;28;20375;-50
2022/08/28 07:07:55;;;;;;;15.25;7.22;;;25.50;99.90;;;;;;5113224;28;20031;-50
2022/08/28 07:10:21;;;;;;;9.00;7.10;;;25.70;99.90;;;;;;5074446;28;20040;-50
2022/08/28 07:12:50;;;;;;;13.35;7.43;;;25.80;99.90;;;;;;5094191;28;20479;-50
2022/08/28 07:15:17;;;;;;;15.70;7.10;;;25.90;99.90;;;;;;5113430;28;20412;-50
2022/08/28 07:17:43;;;;;;;16.25;8.25;;;25.70;99.90;;;;;;5077079;28;20062;-50
2022/08/28 07:20:10;;;;;;;15.68;7.10;;;25.90;99.90;;;;;;5113361;28;20060;-49
2022/08/28 07:22:39;;;;;;;16.27;6.65;;;26.00;99.90;;;;;;5112970;28;20073;-50
2022/08/28 07:25:06;;;;;;;13.70;6.72;;;26.20;99.90;;;;;;5113024;28;20474;-50
2022/08/28 07:27:32;;;;;;;13.30;6.90;;;26.20;99.90;;;;;;5113126;28;20048;-49
2022/08/28 07:29:58;;;;;;;13.52;7.20;;;26.50;99.90;;;;;;5112782;28;20475;-51
2022/08/28 07:32:24;;;;;;;15.23;8.07;;;26.50;99.90;;;;;;5106413;28;20068;-51
2022/08/28 07:34:50;;;;;;;13.23;7.47;;;26.60;99.90;;;;;;5113507;28;20019;-49
2022/08/28 07:37:16;;;;;;;15.18;8.30;;;26.60;99.90;;;;;;5112904;28;20029;-50
2022/08/28 07:39:43;;;;;;;13.75;7.65;;;26.70;99.90;;;;;;5112664;28;20490;-50
2022/08/28 07:42:09;;;;;;;11.48;7.80;;;26.80;99.90;;;;;;5076539;28;20027;-49
2022/08/28 07:44:50;;;;;;;15.23;8.07;;;26.90;99.90;;;;;;5112412;28;20046;-50
2022/08/28 07:47:17;;;;;;;14.45;8.20;;;27.00;99.90;;;;;;5112525;28;20114;-50
2022/08/28 07:49:44;;;;;;;13.70;8.40;;;27.00;99.90;;;;;;5077223;28;20032;-49
2022/08/28 07:52:10;;;;;;;11.70;7.90;;;27.10;99.90;;;;;;5112480;28;20035;-50
2022/08/28 07:54:39;;;;;;;9.90;7.85;;;27.20;99.90;;;;;;5112162;28;20051;-49
2022/08/28 07:57:08;;;;;;;11.55;8.93;;;27.30;99.90;;;;;;5112240;28;20084;-50
2022/08/28 07:59:35;;;;;;;12.43;8.43;;;27.50;99.90;;;;;;5112225;28;20036;-50
2022/08/28 08:02:01;;;;;;;13.98;8.88;;;27.50;99.90;;;;;;5112255;28;20035;-50
2022/08/28 08:04:27;;;;;;;14.05;8.90;;;27.80;99.90;;;;;;5111948;28;20495;-50
2022/08/28 08:06:52;;;;;;;13.43;7.80;;;28.20;99.90;;;;;;5113085;28;20028;-50
2022/08/28 08:09:19;;;;;;;13.30;8.25;;;28.00;99.90;;;;;;5076232;28;20036;-50
2022/08/28 08:11:46;;;;;;;14.73;10.15;;;28.20;99.90;;;;;;5111868;28;20046;-49
2022/08/28 08:14:13;;;;;;;15.10;8.95;;;28.10;99.90;;;;;;5058992;28;20027;-49
2022/08/28 08:16:41;;;;;;;12.18;9.38;;;;;;;;;;5111955;28;20020;-50
2022/08/28 08:19:14;;;;;;;12.15;9.25;;;;;;;;;;5110020;28;20027;-51
2022/08/28 08:21:42;;;;;;;16.75;9.07;;;28.80;99.90;;;;;;5067479;28;20100;-50
2022/08/28 08:24:07;;;;;;;17.35;9.23;;;28.90;99.90;;;;;;5073579;28;20514;-50
2022/08/28 08:26:34;;;;;;;14.23;9.57;;;;;;;;;;5111897;28;20027;-50
2022/08/28 08:28:59;;;;;;;11.55;8.02;;;29.30;99.90;;;;;;5111915;28;20031;-50
2022/08/28 08:31:28;;;;;;;15.85;7.68;;;;;;;;;;5092729;28;20050;-50
2022/08/28 08:33:56;;;;;;;16.30;7.03;;;30.00;99.90;;;;;;5112671;28;20034;-50
2022/08/28 08:36:24;;;;;;;12.00;8.05;;;;;;;;;;5111589;28;20023;-49
2022/08/28 08:38:50;;;;;;;11.52;7.07;;;;;;;;;;5111545;28;20036;-50
2022/08/28 08:41:16;;;;;;;15.02;7.60;;;;;;;;;;5111959;28;20028;-49
2022/08/28 08:43:49;;;;;;;11.77;7.93;;;;;;;;;;5111796;28;20038;-49
2022/08/28 08:46:16;;;;;;;14.68;7.93;;;;;;;;;;5110528;28;20023;-49
2022/08/28 08:48:43;;;;;;;12.77;7.20;;;30.20;99.90;;;;;;5111471;28;20024;-50
2022/08/28 08:51:19;;;;;;;11.10;7.55;;;;;;;;;;5111648;28;20082;-49
2022/08/28 08:53:46;;;;;;;12.02;7.93;;;;;;;;;;5111438;28;20047;-49
2022/08/28 08:56:15;;;;;;;14.55;8.02;;;30.10;99.90;;;;;;5111937;28;20528;-50
2022/08/28 08:58:48;;;;;;;11.20;7.72;;;30.10;99.90;;;;;;5111951;28;20032;-50
2022/08/28 09:01:21;;;;;;;15.45;8.15;;;;;;;;;;5111947;28;20020;-50
2022/08/28 09:03:50;;;;;;;13.20;8.32;;;;;;;;;;5111244;28;20039;-49
2022/08/28 09:06:36;;;;;;;11.15;8.15;;;;;;;;;;5111452;28;20127;-49
2022/08/28 09:09:06;;;;;;;19.65;9.40;;;;;;;;;;5060277;28;20044;-50
2022/08/28 09:11:52;;;;;;;12.70;7.93;;;;;;;;;;5111330;28;20028;-50
2022/08/28 09:14:49;;;;;;;13.48;8.18;;;31.10;99.90;;;;;;5111379;28;20105;-50
2022/08/28 09:17:26;;;;;;;13.85;8.40;;;31.10;99.90;;;;;;5091559;28;20391;-49
2022/08/28 09:19:53;;;;;;;13.52;8.20;;;;;;;;;;5106753;28;20035;-51
2022/08/28 09:22:21;;;;;;;15.40;9.18;;;31.60;99.90;;;;;;5082044;28;20430;-51
2022/08/28 09:24:46;;;;;;;13.38;8.80;;;31.70;99.90;;;;;;5111109;28;20039;-50
2022/08/28 09:27:26;;;;;;;16.58;8.48;;;31.60;99.90;;;;;;5115005;28;20506;-51
2022/08/28 09:30:00;;;;;;;16.48;8.50;;;31.90;99.90;;;;;;5111452;28;20031;-50
2022/08/28 09:32:29;;;;;;;13.60;8.00;;;32.30;99.90;;;;;;5108841;28;20425;-50
2022/08/28 09:35:28;;;;;;;14.88;8.57;;;31.70;99.90;;;;;;5115029;28;20024;-50
2022/08/28 09:37:55;;;;;;;16.52;9.25;;;32.10;99.90;;;;;;5031485;28;20121;-50
2022/08/28 09:40:23;;;;;;;17.27;8.80;;;32.30;99.90;;;;;;5030995;28;20087;-49
2022/08/28 09:43:25;;;;;;;15.55;9.02;;;;;;;;;;5031803;28;20385;-50
2022/08/28 09:46:00;;;;;;;16.67;8.60;;;32.60;99.90;;;;;;5032561;28;20519;-50
2022/08/28 09:48:36;;;;;;;12.65;8.98;;;32.70;99.90;;;;;;5031808;28;20042;-50
2022/08/28 09:51:09;;;;;;;15.40;9.07;;;32.50;99.90;;;;;;5015070;28;20087;-50
2022/08/28 09:53:53;;;;;;;11.60;8.35;;;32.70;99.90;;;;;;5036776;28;20057;-49
2022/08/28 09:56:32;;;;;;;16.10;9.35;;;33.20;99.90;;;;;;5040407;28;20028;-50
2022/08/28 09:59:09;;;;;;;12.07;8.45;;;33.40;99.90;;;;;;5041949;28;20625;-50
2022/08/28 10:01:50;;;;;;;17.65;8.52;;;33.40;99.90;;;;;;5014636;28;20037;-50
2022/08/28 10:04:42;;;;;;;12.52;8.80;;;33.30;99.90;;;;;;5040235;28;20046;-51
2022/08/28 10:07:18;;;;;;;15.73;8.35;;;33.20;99.90;;;;;;5041760;28;20110;-50
2022/08/28 10:10:08;;;;;;;15.30;8.32;;;33.50;99.90;;;;;;5036892;28;20728;-50
2022/08/28 10:13:03;;;;;;;12.57;8.23;;;32.90;99.90;;;;;;5040898;28;20071;-50
2022/08/28 10:15:44;;;;;;;9.27;7.80;;;33.30;99.90;;;;;;5058868;28;20036;-50
2022/08/28 10:18:32;;;;;;;11.77;8.03;;;33.70;99.90;;;;;;5104363;28;20052;-51
2022/08/28 10:21:07;;;;;;;17.70;8.15;;;33.70;99.90;;;;;;5100833;28;20036;-51
2022/08/28 10:23:39;;;;;;;13.15;8.15;;;33.50;99.90;;;;;;5106345;28;20032;-50
2022/08/28 10:26:32;;;;;;;15.70;8.55;;;33.50;99.90;;;;;;5100931;28;20380;-50
2022/08/28 10:29:24;;;;;;;12.95;7.75;;;34.00;99.90;;;;;;5101735;28;20020;-50
2022/08/28 10:31:53;;;;;;;20.77;7.88;;;34.00;99.90;;;;;;5110281;28;20034;-50
2022/08/28 10:34:40;;;;;;;15.35;9.25;;;34.00;99.90;;;;;;5079434;28;20040;-50
2022/08/28 10:37:24;;;;;;;15.23;8.10;;;33.60;99.90;;;;;;5065923;28;20385;-50
2022/08/28 10:39:55;;;;;;;11.93;8.18;;;33.70;99.90;;;;;;5104461;28;20135;-50
2022/08/28 10:42:37;;;;;;;12.40;7.60;;;34.00;99.90;;;;;;5113783;28;20110;-51
2022/08/28 10:45:10;;;;;;;13.68;7.75;;;34.20;99.90;;;;;;5110363;28;20051;-50
2022/08/28 10:47:41;;;;;;;11.27;7.90;;;34.10;99.90;;;;;;5108842;28;20028;-51
2022/08/28 10:50:41;;;;;;;9.57;8.10;;;34.50;99.90;;;;;;5110616;28;20398;-50
2022/08/28 10:53:11;;;;;;;13.05;9.45;;;;;;;;;;5105664;27;20115;-51
2022/08/28 10:55:51;;;;;;;14.27;7.55;;;33.90;99.90;;;;;;5133612;27;20027;-50
2022/08/28 10:58:17;;;;;;;14.60;7.78;;;34.40;99.90;;;;;;5123564;27;20027;-50
2022/08/28 11:00:44;;;;;;;14.40;7.95;;;34.60;99.90;;;;;;5128462;27;20023;-50
2022/08/28 11:03:13;;;;;;;16.85;8.50;;;34.80;99.50;;;;;;5091127;28;20600;-51
2022/08/28 11:05:50;;;;;;;13.23;8.23;;;34.90;99.90;;;;;;5076147;28;20043;-50
2022/08/28 11:08:30;;;;;;;14.60;8.20;;;35.30;99.30;;;;;;5086752;28;20035;-50
2022/08/28 11:10:59;;;;;;;15.30;8.80;;;35.60;98.90;;;;;;5132814;27;20054;-50
2022/08/28 11:13:39;;;;;;;16.42;8.43;;;35.70;98.10;;;;;;5132943;27;20050;-50
2022/08/28 11:16:32;;;;;;;13.90;8.07;;;35.70;98.50;;;;;;5131862;27;20023;-50
2022/08/28 11:19:19;;;;;;;12.80;8.57;;;35.40;97.80;;;;;;5121674;27;20288;-50
2022/08/28 11:22:07;;;;;;;11.07;8.52;;;35.30;97.20;;;;;;5089212;27;20066;-50
2022/08/28 11:24:42;;;;;;;11.70;7.78;;;35.40;97.70;;;;;;5126352;27;20539;-50
2022/08/28 11:27:11;;;;;;;11.05;8.23;;;34.80;97.20;;;;;;5125262;27;20032;-50
2022/08/28 11:30:02;;;;;;;14.93;8.15;;;34.90;97.20;;;;;;5074542;27;20439;-50
2022/08/28 11:32:31;;;;;;;15.13;9.30;;;34.60;96.90;;;;;;5122178;27;20020;-50
2022/08/28 11:35:00;;;;;;;16.45;7.93;;;34.90;97.60;;;;;;5108839;28;20059;-50
2022/08/28 11:37:49;;;;;;;12.85;8.15;;;35.20;96.20;;;;;;5102693;28;20109;-52
2022/08/28 11:40:27;;;;;;;10.55;7.95;;;35.20;96.60;;;;;;5008848;28;20099;-51
2022/08/28 11:43:13;;;;;;;12.05;7.00;;;35.60;96.50;;;;;;5068400;28;20088;-52
2022/08/28 11:45:41;;;;;;;13.00;8.43;;;34.90;95.30;;;;;;5069627;28;20523;-51
2022/08/28 11:48:27;;;;;;;11.30;7.35;;;34.80;95.10;;;;;;5069192;28;20028;-52
2022/08/28 11:51:01;;;;;;;15.45;8.45;;;35.30;96.00;;;;;;5068033;28;20128;-52
2022/08/28 11:54:13;;;;;;;15.77;7.78;;;35.80;96.20;;;;;;5066909;28;20386;-52
2022/08/28 11:56:39;;;;;;;11.88;7.32;;;36.10;94.70;;;;;;4990355;28;20125;-51
2022/08/28 11:59:34;;;;;;;15.13;8.73;;;36.00;95.00;;;;;;4990674;28;20109;-51
2022/08/28 12:02:37;;;;;;;10.70;7.38;;;36.30;95.00;;;;;;4923183;29;20063;-51
2022/08/28 12:05:09;;;;;;;17.33;8.13;;;36.20;94.20;;;;;;4928559;29;20056;-51
2022/08/28 12:07:43;;;;;;;16.30;7.40;;;36.30;94.50;;;;;;4941332;29;20538;-52
2022/08/28 12:10:21;;;;;;;12.23;7.65;;;36.70;94.80;;;;;;4940245;28;20055;-52
2022/08/28 12:12:48;;;;;;;13.88;7.88;;;36.40;94.20;;;;;;4974063;28;20038;-51
2022/08/28 12:15:26;;;;;;;10.07;7.25;;;36.40;94.20;;;;;;4981597;28;20467;-52
2022/08/28 12:17:54;;;;;;;21.90;7.40;;;36.60;93.20;;;;;;4994758;28;20038;-51
2022/08/28 12:20:52;;;;;;;12.07;6.95;;;37.10;93.00;;;;;;4984092;28;20438;-51
2022/08/28 12:23:43;;;;;;;12.10;7.47;;;37.20;92.60;;;;;;4979687;28;20050;-51
2022/08/28 12:26:27;;;;;;;;;;;36.80;92.50;;;;;;4963804;28;20034;-52
2022/08/28 12:29:14;;;;;;;13.23;7.75;;;36.80;92.40;;;;;;4972614;28;20266;-52
2022/08/28 12:34:38;;;;;;;17.98;7.13;;;36.60;93.20;;;;;;5013173;28;20084;-49
2022/08/28 12:37:20;;;;;;;15.65;7.47;;;36.30;93.20;;;;;;5014394;28;20046;-50
2022/08/28 12:39:46;;;;;;;11.98;7.13;;;36.40;92.80;;;;;;5127856;27;20056;-50
2022/08/28 12:42:17;;;;;;;16.08;7.38;;;36.80;93.30;;;;;;5070501;28;20032;-50
2022/08/28 12:44:44;;;;;;;13.77;7.28;;;36.90;92.50;;;;;;5127565;27;20035;-51
2022/08/28 12:47:19;;;;;;;11.63;7.38;;;36.70;92.80;;;;;;5124901;28;20031;-50
2022/08/28 12:49:46;;;;;;;12.68;7.03;;;36.60;92.70;;;;;;5125074;28;20033;-50
2022/08/28 12:52:15;;;;;;;12.65;6.85;;;36.20;93.30;;;;;;5131934;28;20363;-50
2022/08/28 12:54:42;;;;;;;14.52;7.38;;;36.10;92.50;;;;;;5115925;28;20058;-50
2022/08/28 12:57:14;;;;;;;16.10;6.90;;;35.80;92.80;;;;;;5109667;28;20032;-52
2022/08/28 12:59:43;;;;;;;11.57;6.95;;;36.10;93.00;;;;;;5105575;28;20023;-50
2022/08/28 13:02:26;;;;;;;17.58;7.63;;;36.30;92.60;;;;;;5115715;28;20080;-51
2022/08/28 13:04:57;;;;;;;12.40;7.13;;;36.70;93.20;;;;;;5075955;28;20051;-50
2022/08/28 13:07:35;;;;;;;13.80;7.00;;;36.80;92.90;;;;;;5107638;28;20020;-50